Seyma — 9HA3396 — position and weather

sailwx.info

Track history (hours):
 
Tides and Currents Weather Stations Pressure Air Temp Water Temp Dewpoint Dewpoint Depression Visibility Wind Speed Wind Dir Waves Ship Positions

Seyma

Last reported at 2018-Jun-18 06:35 UTC. Time now 2018-Jun-18 07:56 UTC.
Position N 36°43' E 000°09'.

Length 122 m; draft 4.9 m.

Type: Ship. MMSI: 229546000.

Date/timePositionNaut miles runAvg speedWind from/ knotsBaromVisibWave heightAir tempDewpointWater temp
2018-Jun-18 06:35N 36°43' E 000°09'111.8
2018-Jun-18 06:30N 36°43' E 000°10'611.7
2018-Jun-18 06:00N 36°44' E 000°17'911.5
2018-Jun-18 05:14N 36°46' E 000°28'511.4
2018-Jun-18 04:47N 36°46' E 000°34'411.3
2018-Jun-18 04:28N 36°47' E 000°39'511.3
2018-Jun-18 04:00N 36°48' E 000°45'1211.4
2018-Jun-18 02:54N 36°49' E 001°01'511.3
2018-Jun-18 02:30N 36°49' E 001°06'611.2
2018-Jun-18 01:59N 36°50' E 001°14'511.1
2018-Jun-18 01:30N 36°50' E 001°20'511.0
2018-Jun-18 01:00N 36°51' E 001°27'510.9
2018-Jun-18 00:30N 36°52' E 001°34'810.6
2018-Jun-17 23:44N 36°53' E 001°44'510.5
2018-Jun-17 23:17N 36°54' E 001°50'410.5
2018-Jun-17 22:53N 36°55' E 001°55'1910.5
2018-Jun-17 21:03N 36°57' E 002°19'1111.7
2018-Jun-17 20:07N 36°58' E 002°32'212.0
2018-Jun-17 19:59N 36°59' E 002°34'612.1
2018-Jun-17 19:30N 36°60' E 002°41'1712.4
2018-Jun-17 18:06N 37°02' E 003°03'112.6
2018-Jun-17 18:00N 37°02' E 003°04'52610.4
2018-Jun-15 15:21N 36°56' E 014°03'3 9.3
2018-Jun-15 15:00N 36°55' E 014°06'5 9.7
2018-Jun-15 14:30N 36°52' E 014°11'5 9.4
2018-Jun-15 14:00N 36°50' E 014°17'5 9.5
2018-Jun-15 13:30N 36°48' E 014°21'5 9.3
2018-Jun-15 13:00N 36°45' E 014°26'5 9.1
2018-Jun-15 12:30N 36°42' E 014°31'4 8.7
2018-Jun-15 12:00N 36°40' E 014°36'5 8.9
2018-Jun-15 11:30N 36°39' E 014°41'41910.0
2018-Jun-13 17:28N 36°39' E 023°24'510.8
2018-Jun-13 16:58N 36°44' E 023°28'1010.5
2018-Jun-13 15:59N 36°53' E 023°34'1111.0
2018-Jun-13 15:01N 37°02' E 023°42'011.3
2018-Jun-13 15:00N 37°02' E 023°42'611.4
2018-Jun-13 14:31N 37°07' E 023°46'611.0
2018-Jun-13 14:00N 37°11' E 023°49'611.0
2018-Jun-13 13:30N 37°16' E 023°52'7711.5
2018-Jun-13 06:48N 38°17' E 024°52'  
2018-Jun-10 22:13N 37°43' E 023°40'211.4
2018-Jun-10 22:01N 37°45' E 023°39'611.2
2018-Jun-10 21:31N 37°50' E 023°37'510.8
2018-Jun-10 21:00N 37°56' E 023°37'2 4.0
2018-Jun-10 20:30N 37°57' E 023°35'0 0.0
2018-Jun-10 20:00N 37°57' E 023°35'0 0.0
2018-Jun-10 19:27N 37°57' E 023°35'0 0.0
2018-Jun-10 19:00N 37°57' E 023°35'0 0.0
2018-Jun-10 18:30N 37°57' E 023°35'0 0.0
2018-Jun-10 18:00N 37°57' E 023°35'0 0.0
2018-Jun-10 17:30N 37°57' E 023°35'0 0.0
2018-Jun-10 17:00N 37°57' E 023°35'0 0.0
2018-Jun-10 16:30N 37°57' E 023°35'0 0.0
2018-Jun-10 16:00N 37°57' E 023°35'0 0.0
2018-Jun-10 15:30N 37°57' E 023°35'0 0.0
2018-Jun-10 15:00N 37°57' E 023°35'0 0.0
2018-Jun-10 14:30N 37°57' E 023°35'0 0.0
2018-Jun-10 13:30N 37°57' E 023°35'0 0.0
2018-Jun-10 13:00N 37°57' E 023°35'0 0.0
2018-Jun-10 12:30N 37°57' E 023°35'0 0.0
2018-Jun-10 12:00N 37°57' E 023°35'0 0.0
2018-Jun-10 11:30N 37°57' E 023°35'0 0.0
2018-Jun-10 11:00N 37°57' E 023°35'0 0.0
2018-Jun-10 10:30N 37°57' E 023°35'0 0.0
2018-Jun-10 10:00N 37°57' E 023°35'0 0.0
2018-Jun-10 09:30N 37°57' E 023°35'0 0.0
2018-Jun-10 09:00N 37°57' E 023°35'0 0.0
2018-Jun-10 08:30N 37°57' E 023°35'0 0.0
2018-Jun-10 08:00N 37°57' E 023°35'0 0.0
2018-Jun-10 07:30N 37°57' E 023°35'1 2.5
2018-Jun-10 07:00N 37°56' E 023°36'2 3.6
2018-Jun-10 06:30N 37°54' E 023°36'2 3.2
2018-Jun-10 06:00N 37°53' E 023°37'4 8.9
2018-Jun-10 05:30N 37°49' E 023°40'  
Track history (hours):
 
Tides and Currents Weather Stations Pressure Air Temp Water Temp Dewpoint Dewpoint Depression Visibility Wind Speed Wind Dir Waves Ship Positions

Seyma

Last reported at 2018-Jun-18 06:35 UTC. Time now 2018-Jun-18 07:56 UTC.
Position N 36°43' E 000°09'.

Length 122 m; draft 4.9 m.

Type: Ship. MMSI: 229546000.

Date/timePositionNaut miles runAvg speedWind from/ knotsBaromVisibWave heightAir tempDewpointWater temp
2018-Jun-18 06:35N 36°43' E 000°09'111.8
2018-Jun-18 06:30N 36°43' E 000°10'611.7
2018-Jun-18 06:00N 36°44' E 000°17'911.5
2018-Jun-18 05:14N 36°46' E 000°28'511.4
2018-Jun-18 04:47N 36°46' E 000°34'411.3
2018-Jun-18 04:28N 36°47' E 000°39'511.3
2018-Jun-18 04:00N 36°48' E 000°45'1211.4
2018-Jun-18 02:54N 36°49' E 001°01'511.3
2018-Jun-18 02:30N 36°49' E 001°06'611.2
2018-Jun-18 01:59N 36°50' E 001°14'511.1
2018-Jun-18 01:30N 36°50' E 001°20'511.0
2018-Jun-18 01:00N 36°51' E 001°27'510.9
2018-Jun-18 00:30N 36°52' E 001°34'810.6
2018-Jun-17 23:44N 36°53' E 001°44'510.5
2018-Jun-17 23:17N 36°54' E 001°50'410.5
2018-Jun-17 22:53N 36°55' E 001°55'1910.5
2018-Jun-17 21:03N 36°57' E 002°19'1111.7
2018-Jun-17 20:07N 36°58' E 002°32'212.0
2018-Jun-17 19:59N 36°59' E 002°34'612.1
2018-Jun-17 19:30N 36°60' E 002°41'1712.4
2018-Jun-17 18:06N 37°02' E 003°03'112.6
2018-Jun-17 18:00N 37°02' E 003°04'52610.4
2018-Jun-15 15:21N 36°56' E 014°03'3 9.3
2018-Jun-15 15:00N 36°55' E 014°06'5 9.7
2018-Jun-15 14:30N 36°52' E 014°11'5 9.4
2018-Jun-15 14:00N 36°50' E 014°17'5 9.5
2018-Jun-15 13:30N 36°48' E 014°21'5 9.3
2018-Jun-15 13:00N 36°45' E 014°26'5 9.1
2018-Jun-15 12:30N 36°42' E 014°31'4 8.7
2018-Jun-15 12:00N 36°40' E 014°36'5 8.9
2018-Jun-15 11:30N 36°39' E 014°41'41910.0
2018-Jun-13 17:28N 36°39' E 023°24'510.8
2018-Jun-13 16:58N 36°44' E 023°28'1010.5
2018-Jun-13 15:59N 36°53' E 023°34'1111.0
2018-Jun-13 15:01N 37°02' E 023°42'011.3
2018-Jun-13 15:00N 37°02' E 023°42'611.4
2018-Jun-13 14:31N 37°07' E 023°46'611.0
2018-Jun-13 14:00N 37°11' E 023°49'611.0
2018-Jun-13 13:30N 37°16' E 023°52'7711.5
2018-Jun-13 06:48N 38°17' E 024°52'  
2018-Jun-10 22:13N 37°43' E 023°40'211.4
2018-Jun-10 22:01N 37°45' E 023°39'611.2
2018-Jun-10 21:31N 37°50' E 023°37'510.8
2018-Jun-10 21:00N 37°56' E 023°37'2 4.0
2018-Jun-10 20:30N 37°57' E 023°35'0 0.0
2018-Jun-10 20:00N 37°57' E 023°35'0 0.0
2018-Jun-10 19:27N 37°57' E 023°35'0 0.0
2018-Jun-10 19:00N 37°57' E 023°35'0 0.0
2018-Jun-10 18:30N 37°57' E 023°35'0 0.0
2018-Jun-10 18:00N 37°57' E 023°35'0 0.0
2018-Jun-10 17:30N 37°57' E 023°35'0 0.0
2018-Jun-10 17:00N 37°57' E 023°35'0 0.0
2018-Jun-10 16:30N 37°57' E 023°35'0 0.0
2018-Jun-10 16:00N 37°57' E 023°35'0 0.0
2018-Jun-10 15:30N 37°57' E 023°35'0 0.0
2018-Jun-10 15:00N 37°57' E 023°35'0 0.0
2018-Jun-10 14:30N 37°57' E 023°35'0 0.0
2018-Jun-10 13:30N 37°57' E 023°35'0 0.0
2018-Jun-10 13:00N 37°57' E 023°35'0 0.0
2018-Jun-10 12:30N 37°57' E 023°35'0 0.0
2018-Jun-10 12:00N 37°57' E 023°35'0 0.0
2018-Jun-10 11:30N 37°57' E 023°35'0 0.0
2018-Jun-10 11:00N 37°57' E 023°35'0 0.0
2018-Jun-10 10:30N 37°57' E 023°35'0 0.0
2018-Jun-10 10:00N 37°57' E 023°35'0 0.0
2018-Jun-10 09:30N 37°57' E 023°35'0 0.0
2018-Jun-10 09:00N 37°57' E 023°35'0 0.0
2018-Jun-10 08:30N 37°57' E 023°35'0 0.0
2018-Jun-10 08:00N 37°57' E 023°35'0 0.0
2018-Jun-10 07:30N 37°57' E 023°35'1 2.5
2018-Jun-10 07:00N 37°56' E 023°36'2 3.6
2018-Jun-10 06:30N 37°54' E 023°36'2 3.2
2018-Jun-10 06:00N 37°53' E 023°37'4 8.9
2018-Jun-10 05:30N 37°49' E 023°40'  

Dump ship's entire track history